sensor_id;sensor_type;location;lat;lon;timestamp;P1;durP1;ratioP1;P2;durP2;ratioP2
35562;SDS011;21665;40.108;18.302;2023-08-01T06:14:21;28.77;;;26.85;;
35562;SDS011;21665;40.108;18.302;2023-08-01T06:16:48;29.85;;;27.42;;
35562;SDS011;21665;40.108;18.302;2023-08-01T06:19:15;29.90;;;27.55;;
35562;SDS011;21665;40.108;18.302;2023-08-01T06:21:42;29.73;;;27.67;;
35562;SDS011;21665;40.108;18.302;2023-08-01T06:24:08;29.95;;;27.77;;
35562;SDS011;21665;40.108;18.302;2023-08-01T06:26:35;29.88;;;27.73;;
35562;SDS011;21665;40.108;18.302;2023-08-01T06:29:02;30.15;;;28.10;;
35562;SDS011;21665;40.108;18.302;2023-08-01T06:31:28;29.73;;;27.73;;
35562;SDS011;21665;40.108;18.302;2023-08-01T06:33:54;30.45;;;28.00;;
35562;SDS011;21665;40.108;18.302;2023-08-01T07:29:18;35.40;;;32.58;;
35562;SDS011;21665;40.108;18.302;2023-08-01T07:31:46;35.63;;;33.25;;
35562;SDS011;21665;40.108;18.302;2023-08-01T07:34:12;35.67;;;33.25;;
35562;SDS011;21665;40.108;18.302;2023-08-01T07:36:39;35.90;;;33.50;;
35562;SDS011;21665;40.108;18.302;2023-08-01T07:39:08;35.38;;;33.00;;
35562;SDS011;21665;40.108;18.302;2023-08-01T07:41:35;36.30;;;33.67;;
35562;SDS011;21665;40.108;18.302;2023-08-01T07:44:02;35.55;;;33.17;;
35562;SDS011;21665;40.108;18.302;2023-08-01T07:46:31;35.22;;;32.92;;
35562;SDS011;21665;40.108;18.302;2023-08-01T07:49:00;35.58;;;33.38;;
35562;SDS011;21665;40.108;18.302;2023-08-01T07:51:29;36.50;;;34.00;;
35562;SDS011;21665;40.108;18.302;2023-08-01T07:53:56;35.58;;;33.45;;
35562;SDS011;21665;40.108;18.302;2023-08-01T07:56:23;35.58;;;33.38;;
35562;SDS011;21665;40.108;18.302;2023-08-01T07:58:49;36.50;;;34.17;;
35562;SDS011;21665;40.108;18.302;2023-08-01T08:01:16;36.17;;;33.80;;
35562;SDS011;21665;40.108;18.302;2023-08-01T08:03:42;36.80;;;34.40;;
35562;SDS011;21665;40.108;18.302;2023-08-01T08:06:09;36.25;;;33.78;;
35562;SDS011;21665;40.108;18.302;2023-08-01T08:08:56;35.17;;;32.67;;
35562;SDS011;21665;40.108;18.302;2023-08-01T08:11:23;35.70;;;33.45;;
35562;SDS011;21665;40.108;18.302;2023-08-01T08:13:49;36.15;;;33.65;;
35562;SDS011;21665;40.108;18.302;2023-08-01T08:16:19;35.30;;;33.20;;
35562;SDS011;21665;40.108;18.302;2023-08-01T08:18:46;35.88;;;33.67;;
35562;SDS011;21665;40.108;18.302;2023-08-01T08:21:12;36.70;;;33.95;;
35562;SDS011;21665;40.108;18.302;2023-08-01T08:23:39;36.30;;;33.90;;
35562;SDS011;21665;40.108;18.302;2023-08-01T08:26:06;35.90;;;33.70;;
35562;SDS011;21665;40.108;18.302;2023-08-01T08:28:33;35.60;;;33.30;;
35562;SDS011;21665;40.108;18.302;2023-08-01T08:31:00;36.63;;;34.20;;
35562;SDS011;21665;40.108;18.302;2023-08-01T08:33:30;36.03;;;33.78;;
35562;SDS011;21665;40.108;18.302;2023-08-01T08:35:57;36.42;;;33.80;;
35562;SDS011;21665;40.108;18.302;2023-08-01T08:38:23;36.47;;;33.90;;
35562;SDS011;21665;40.108;18.302;2023-08-01T08:43:35;36.65;;;34.35;;
35562;SDS011;21665;40.108;18.302;2023-08-01T08:46:15;37.33;;;34.92;;
35562;SDS011;21665;40.108;18.302;2023-08-01T08:48:52;36.80;;;34.40;;
35562;SDS011;21665;40.108;18.302;2023-08-01T08:51:19;36.92;;;34.45;;
35562;SDS011;21665;40.108;18.302;2023-08-01T08:53:48;36.97;;;34.72;;
35562;SDS011;21665;40.108;18.302;2023-08-01T08:56:19;36.53;;;34.22;;
35562;SDS011;21665;40.108;18.302;2023-08-01T08:58:46;36.95;;;34.55;;
35562;SDS011;21665;40.108;18.302;2023-08-01T09:01:36;36.25;;;34.10;;
35562;SDS011;21665;40.108;18.302;2023-08-01T09:04:05;36.97;;;34.67;;
35562;SDS011;21665;40.108;18.302;2023-08-01T09:06:32;36.58;;;34.38;;
35562;SDS011;21665;40.108;18.302;2023-08-01T13:20:05;34.33;;;31.95;;
35562;SDS011;21665;40.108;18.302;2023-08-01T13:22:33;34.35;;;31.77;;
35562;SDS011;21665;40.108;18.302;2023-08-01T13:24:59;35.17;;;32.88;;
35562;SDS011;21665;40.108;18.302;2023-08-01T13:27:29;33.53;;;31.23;;
35562;SDS011;21665;40.108;18.302;2023-08-01T13:29:56;34.03;;;31.77;;
35562;SDS011;21665;40.108;18.302;2023-08-01T13:32:22;33.63;;;31.27;;
35562;SDS011;21665;40.108;18.302;2023-08-01T13:34:49;34.03;;;31.48;;
35562;SDS011;21665;40.108;18.302;2023-08-01T13:37:15;34.13;;;31.73;;
35562;SDS011;21665;40.108;18.302;2023-08-01T13:39:42;34.60;;;32.03;;
35562;SDS011;21665;40.108;18.302;2023-08-01T13:42:08;33.65;;;31.30;;
35562;SDS011;21665;40.108;18.302;2023-08-01T13:44:35;34.17;;;31.88;;
35562;SDS011;21665;40.108;18.302;2023-08-01T13:47:05;34.28;;;31.98;;
35562;SDS011;21665;40.108;18.302;2023-08-01T13:49:31;34.03;;;31.80;;
35562;SDS011;21665;40.108;18.302;2023-08-01T13:51:58;34.78;;;32.47;;
35562;SDS011;21665;40.108;18.302;2023-08-01T13:54:26;34.88;;;32.45;;
35562;SDS011;21665;40.108;18.302;2023-08-01T13:56:52;34.88;;;32.55;;
35562;SDS011;21665;40.108;18.302;2023-08-01T13:59:21;34.05;;;31.58;;
35562;SDS011;21665;40.108;18.302;2023-08-01T14:01:48;33.83;;;31.58;;
35562;SDS011;21665;40.108;18.302;2023-08-01T14:04:27;34.25;;;32.05;;
35562;SDS011;21665;40.108;18.302;2023-08-01T14:06:53;34.30;;;31.95;;
35562;SDS011;21665;40.108;18.302;2023-08-01T14:09:20;34.22;;;31.95;;
35562;SDS011;21665;40.108;18.302;2023-08-01T14:11:47;34.30;;;32.20;;
35562;SDS011;21665;40.108;18.302;2023-08-01T14:14:13;34.63;;;32.08;;
35562;SDS011;21665;40.108;18.302;2023-08-01T14:16:40;34.58;;;32.25;;
35562;SDS011;21665;40.108;18.302;2023-08-01T14:19:06;34.10;;;31.80;;
35562;SDS011;21665;40.108;18.302;2023-08-01T14:21:33;34.70;;;32.08;;
35562;SDS011;21665;40.108;18.302;2023-08-01T14:24:00;33.83;;;31.52;;
35562;SDS011;21665;40.108;18.302;2023-08-01T14:26:30;34.95;;;32.55;;
35562;SDS011;21665;40.108;18.302;2023-08-01T14:28:56;33.90;;;31.70;;
35562;SDS011;21665;40.108;18.302;2023-08-01T14:31:23;34.90;;;32.60;;
35562;SDS011;21665;40.108;18.302;2023-08-01T14:33:49;34.00;;;31.75;;
35562;SDS011;21665;40.108;18.302;2023-08-01T14:36:15;35.20;;;32.80;;
35562;SDS011;21665;40.108;18.302;2023-08-01T14:38:42;35.25;;;32.88;;
35562;SDS011;21665;40.108;18.302;2023-08-01T14:41:10;35.28;;;32.67;;
35562;SDS011;21665;40.108;18.302;2023-08-01T14:43:36;36.13;;;33.60;;
35562;SDS011;21665;40.108;18.302;2023-08-01T14:46:03;37.10;;;34.65;;
35562;SDS011;21665;40.108;18.302;2023-08-01T14:48:29;37.25;;;34.72;;
35562;SDS011;21665;40.108;18.302;2023-08-01T14:50:55;37.45;;;34.95;;
35562;SDS011;21665;40.108;18.302;2023-08-01T14:53:21;38.22;;;35.42;;
35562;SDS011;21665;40.108;18.302;2023-08-01T14:55:55;37.60;;;35.20;;
35562;SDS011;21665;40.108;18.302;2023-08-01T14:58:29;37.90;;;35.38;;
35562;SDS011;21665;40.108;18.302;2023-08-01T15:00:56;38.15;;;35.72;;
35562;SDS011;21665;40.108;18.302;2023-08-01T15:03:22;38.05;;;35.38;;
35562;SDS011;21665;40.108;18.302;2023-08-01T15:06:06;39.08;;;36.42;;
35562;SDS011;21665;40.108;18.302;2023-08-01T15:11:04;37.47;;;35.08;;
35562;SDS011;21665;40.108;18.302;2023-08-01T15:13:31;38.08;;;35.63;;
35562;SDS011;21665;40.108;18.302;2023-08-01T15:15:58;38.00;;;35.53;;
35562;SDS011;21665;40.108;18.302;2023-08-01T15:18:25;37.17;;;34.88;;
35562;SDS011;21665;40.108;18.302;2023-08-01T15:20:55;37.92;;;35.55;;
35562;SDS011;21665;40.108;18.302;2023-08-01T15:23:21;37.67;;;35.00;;
35562;SDS011;21665;40.108;18.302;2023-08-01T15:25:56;37.20;;;34.65;;
35562;SDS011;21665;40.108;18.302;2023-08-01T15:28:26;37.85;;;35.13;;
35562;SDS011;21665;40.108;18.302;2023-08-01T15:31:02;38.78;;;36.08;;
35562;SDS011;21665;40.108;18.302;2023-08-01T15:33:33;38.20;;;35.70;;
35562;SDS011;21665;40.108;18.302;2023-08-01T15:36:01;38.17;;;35.78;;
35562;SDS011;21665;40.108;18.302;2023-08-01T15:38:33;37.53;;;35.20;;
35562;SDS011;21665;40.108;18.302;2023-08-01T15:41:01;38.33;;;35.67;;
35562;SDS011;21665;40.108;18.302;2023-08-01T15:43:32;47.40;;;43.90;;
35562;SDS011;21665;40.108;18.302;2023-08-01T15:46:00;45.45;;;42.15;;
35562;SDS011;21665;40.108;18.302;2023-08-01T15:48:28;45.97;;;42.47;;
35562;SDS011;21665;40.108;18.302;2023-08-01T15:50:54;44.53;;;41.10;;
35562;SDS011;21665;40.108;18.302;2023-08-01T15:53:21;42.92;;;39.83;;
35562;SDS011;21665;40.108;18.302;2023-08-01T15:55:57;39.53;;;36.92;;
35562;SDS011;21665;40.108;18.302;2023-08-01T15:58:25;43.08;;;39.88;;
35562;SDS011;21665;40.108;18.302;2023-08-01T16:00:52;41.78;;;38.85;;
35562;SDS011;21665;40.108;18.302;2023-08-01T16:03:19;44.00;;;40.80;;
35562;SDS011;21665;40.108;18.302;2023-08-01T16:05:45;38.85;;;36.33;;
35562;SDS011;21665;40.108;18.302;2023-08-01T16:08:12;38.60;;;36.10;;
35562;SDS011;21665;40.108;18.302;2023-08-01T16:10:40;40.13;;;37.42;;
35562;SDS011;21665;40.108;18.302;2023-08-01T16:13:07;40.50;;;37.80;;
35562;SDS011;21665;40.108;18.302;2023-08-01T16:15:38;38.70;;;36.10;;
35562;SDS011;21665;40.108;18.302;2023-08-01T16:18:06;38.72;;;36.13;;
35562;SDS011;21665;40.108;18.302;2023-08-01T16:20:33;39.80;;;37.08;;
35562;SDS011;21665;40.108;18.302;2023-08-01T16:22:59;38.88;;;36.28;;
35562;SDS011;21665;40.108;18.302;2023-08-01T16:25:26;38.38;;;35.70;;
35562;SDS011;21665;40.108;18.302;2023-08-01T16:27:52;38.17;;;35.85;;
35562;SDS011;21665;40.108;18.302;2023-08-01T16:30:19;38.70;;;36.00;;
35562;SDS011;21665;40.108;18.302;2023-08-01T16:32:45;38.20;;;35.63;;
35562;SDS011;21665;40.108;18.302;2023-08-01T16:35:12;43.50;;;40.22;;
35562;SDS011;21665;40.108;18.302;2023-08-01T16:37:40;45.47;;;41.88;;
35562;SDS011;21665;40.108;18.302;2023-08-01T16:40:06;40.33;;;37.53;;
35562;SDS011;21665;40.108;18.302;2023-08-01T16:42:33;39.28;;;36.67;;
35562;SDS011;21665;40.108;18.302;2023-08-01T16:45:00;37.97;;;35.47;;
35562;SDS011;21665;40.108;18.302;2023-08-01T16:47:26;41.25;;;38.25;;
35562;SDS011;21665;40.108;18.302;2023-08-01T16:49:55;39.15;;;36.45;;
35562;SDS011;21665;40.108;18.302;2023-08-01T16:52:23;39.05;;;36.10;;
35562;SDS011;21665;40.108;18.302;2023-08-01T16:54:49;38.45;;;35.85;;
35562;SDS011;21665;40.108;18.302;2023-08-01T16:57:16;38.95;;;36.28;;
35562;SDS011;21665;40.108;18.302;2023-08-01T16:59:42;37.85;;;35.17;;
35562;SDS011;21665;40.108;18.302;2023-08-01T17:02:15;39.42;;;36.50;;
35562;SDS011;21665;40.108;18.302;2023-08-01T17:04:42;39.60;;;36.90;;
35562;SDS011;21665;40.108;18.302;2023-08-01T17:07:09;43.10;;;39.55;;
35562;SDS011;21665;40.108;18.302;2023-08-01T17:09:36;40.13;;;37.28;;
35562;SDS011;21665;40.108;18.302;2023-08-01T17:12:02;37.67;;;35.17;;
35562;SDS011;21665;40.108;18.302;2023-08-01T17:14:30;38.55;;;35.75;;
35562;SDS011;21665;40.108;18.302;2023-08-01T17:16:56;39.35;;;36.22;;
35562;SDS011;21665;40.108;18.302;2023-08-01T17:19:22;41.35;;;37.90;;
35562;SDS011;21665;40.108;18.302;2023-08-01T17:21:49;43.15;;;39.63;;
35562;SDS011;21665;40.108;18.302;2023-08-01T17:24:15;43.15;;;39.63;;
35562;SDS011;21665;40.108;18.302;2023-08-01T17:26:41;42.67;;;39.28;;
35562;SDS011;21665;40.108;18.302;2023-08-01T17:29:08;41.72;;;38.17;;
35562;SDS011;21665;40.108;18.302;2023-08-01T17:31:38;40.35;;;37.25;;
35562;SDS011;21665;40.108;18.302;2023-08-01T17:34:05;39.15;;;36.15;;
35562;SDS011;21665;40.108;18.302;2023-08-01T17:36:32;36.67;;;33.90;;
35562;SDS011;21665;40.108;18.302;2023-08-01T17:38:58;35.90;;;33.50;;
35562;SDS011;21665;40.108;18.302;2023-08-01T17:41:26;35.58;;;33.17;;
35562;SDS011;21665;40.108;18.302;2023-08-01T17:43:54;34.40;;;32.20;;
35562;SDS011;21665;40.108;18.302;2023-08-01T17:46:22;34.72;;;32.33;;
35562;SDS011;21665;40.108;18.302;2023-08-01T17:48:50;34.83;;;32.53;;
35562;SDS011;21665;40.108;18.302;2023-08-01T17:51:17;33.83;;;31.42;;
35562;SDS011;21665;40.108;18.302;2023-08-01T17:53:44;33.75;;;31.55;;
35562;SDS011;21665;40.108;18.302;2023-08-01T17:56:12;32.55;;;30.33;;
35562;SDS011;21665;40.108;18.302;2023-08-01T17:58:39;32.65;;;30.55;;
35562;SDS011;21665;40.108;18.302;2023-08-01T18:01:08;33.00;;;30.85;;
35562;SDS011;21665;40.108;18.302;2023-08-01T18:03:35;32.40;;;30.25;;
35562;SDS011;21665;40.108;18.302;2023-08-01T18:06:03;33.15;;;30.92;;
35562;SDS011;21665;40.108;18.302;2023-08-01T18:08:31;32.42;;;30.15;;
35562;SDS011;21665;40.108;18.302;2023-08-01T18:10:58;31.88;;;29.80;;
35562;SDS011;21665;40.108;18.302;2023-08-01T18:13:27;32.58;;;30.13;;
35562;SDS011;21665;40.108;18.302;2023-08-01T18:15:54;32.10;;;29.80;;
35562;SDS011;21665;40.108;18.302;2023-08-01T18:18:20;33.03;;;30.17;;
35562;SDS011;21665;40.108;18.302;2023-08-01T18:20:55;32.70;;;30.30;;
35562;SDS011;21665;40.108;18.302;2023-08-01T18:23:24;32.30;;;29.80;;
35562;SDS011;21665;40.108;18.302;2023-08-01T18:25:50;30.65;;;28.50;;
35562;SDS011;21665;40.108;18.302;2023-08-01T18:28:17;29.75;;;27.80;;
35562;SDS011;21665;40.108;18.302;2023-08-01T18:30:43;30.02;;;27.83;;
35562;SDS011;21665;40.108;18.302;2023-08-01T18:33:10;28.92;;;26.92;;
35562;SDS011;21665;40.108;18.302;2023-08-01T18:35:43;27.85;;;26.02;;
35562;SDS011;21665;40.108;18.302;2023-08-01T18:38:10;27.13;;;25.33;;
35562;SDS011;21665;40.108;18.302;2023-08-01T18:40:37;26.77;;;25.08;;
35562;SDS011;21665;40.108;18.302;2023-08-01T18:43:05;26.90;;;24.85;;
35562;SDS011;21665;40.108;18.302;2023-08-01T18:45:31;26.33;;;24.40;;
35562;SDS011;21665;40.108;18.302;2023-08-01T18:47:58;25.27;;;23.67;;
35562;SDS011;21665;40.108;18.302;2023-08-01T18:50:24;25.27;;;23.67;;
35562;SDS011;21665;40.108;18.302;2023-08-01T18:52:50;26.25;;;24.13;;
35562;SDS011;21665;40.108;18.302;2023-08-01T18:55:17;25.13;;;23.52;;
35562;SDS011;21665;40.108;18.302;2023-08-01T18:57:44;25.80;;;24.00;;
35562;SDS011;21665;40.108;18.302;2023-08-01T19:00:11;26.02;;;24.08;;
35562;SDS011;21665;40.108;18.302;2023-08-01T19:02:38;25.88;;;23.85;;
35562;SDS011;21665;40.108;18.302;2023-08-01T19:05:10;25.88;;;24.00;;
35562;SDS011;21665;40.108;18.302;2023-08-01T19:07:37;25.70;;;23.95;;
35562;SDS011;21665;40.108;18.302;2023-08-01T19:10:03;26.05;;;24.35;;
35562;SDS011;21665;40.108;18.302;2023-08-01T19:12:31;26.08;;;24.27;;
35562;SDS011;21665;40.108;18.302;2023-08-01T19:14:57;26.55;;;24.33;;
35562;SDS011;21665;40.108;18.302;2023-08-01T19:17:23;26.30;;;24.50;;
35562;SDS011;21665;40.108;18.302;2023-08-01T19:19:53;26.50;;;24.60;;
35562;SDS011;21665;40.108;18.302;2023-08-01T19:22:20;26.65;;;24.85;;
35562;SDS011;21665;40.108;18.302;2023-08-01T19:24:46;27.17;;;25.38;;
35562;SDS011;21665;40.108;18.302;2023-08-01T19:27:18;27.25;;;25.40;;
35562;SDS011;21665;40.108;18.302;2023-08-01T19:32:20;27.77;;;25.88;;
35562;SDS011;21665;40.108;18.302;2023-08-01T19:34:51;27.95;;;26.15;;
35562;SDS011;21665;40.108;18.302;2023-08-01T19:37:18;28.35;;;26.38;;
35562;SDS011;21665;40.108;18.302;2023-08-01T19:39:45;28.25;;;26.35;;
35562;SDS011;21665;40.108;18.302;2023-08-01T19:42:11;27.85;;;25.95;;
35562;SDS011;21665;40.108;18.302;2023-08-01T19:44:38;27.77;;;25.98;;
35562;SDS011;21665;40.108;18.302;2023-08-01T19:47:05;28.42;;;26.48;;
35562;SDS011;21665;40.108;18.302;2023-08-01T19:49:32;28.77;;;26.60;;
35562;SDS011;21665;40.108;18.302;2023-08-01T19:51:59;28.05;;;26.05;;
35562;SDS011;21665;40.108;18.302;2023-08-01T19:54:27;27.95;;;25.88;;
35562;SDS011;21665;40.108;18.302;2023-08-01T19:56:53;27.88;;;25.98;;
35562;SDS011;21665;40.108;18.302;2023-08-01T19:59:20;28.02;;;25.92;;
35562;SDS011;21665;40.108;18.302;2023-08-01T20:01:47;28.10;;;26.00;;
35562;SDS011;21665;40.108;18.302;2023-08-01T20:04:17;27.45;;;25.48;;
35562;SDS011;21665;40.108;18.302;2023-08-01T20:06:44;27.73;;;25.73;;
35562;SDS011;21665;40.108;18.302;2023-08-01T20:09:10;27.80;;;25.70;;
35562;SDS011;21665;40.108;18.302;2023-08-01T20:11:37;28.25;;;25.88;;
35562;SDS011;21665;40.108;18.302;2023-08-01T20:14:03;27.73;;;25.73;;
35562;SDS011;21665;40.108;18.302;2023-08-01T20:16:30;27.17;;;25.35;;
35562;SDS011;21665;40.108;18.302;2023-08-01T20:18:57;27.92;;;25.90;;
35562;SDS011;21665;40.108;18.302;2023-08-01T20:21:27;28.15;;;25.70;;
35562;SDS011;21665;40.108;18.302;2023-08-01T20:23:53;28.17;;;25.60;;
35562;SDS011;21665;40.108;18.302;2023-08-01T20:26:20;27.25;;;25.33;;
35562;SDS011;21665;40.108;18.302;2023-08-01T20:28:47;27.52;;;25.50;;
35562;SDS011;21665;40.108;18.302;2023-08-01T20:31:14;26.90;;;25.10;;
35562;SDS011;21665;40.108;18.302;2023-08-01T20:33:40;28.35;;;26.10;;
35562;SDS011;21665;40.108;18.302;2023-08-01T20:36:07;27.30;;;25.30;;
35562;SDS011;21665;40.108;18.302;2023-08-01T20:38:33;27.35;;;25.08;;
35562;SDS011;21665;40.108;18.302;2023-08-01T20:41:00;27.17;;;24.98;;
35562;SDS011;21665;40.108;18.302;2023-08-01T20:43:27;26.58;;;24.58;;
35562;SDS011;21665;40.108;18.302;2023-08-01T20:45:53;26.48;;;24.27;;
35562;SDS011;21665;40.108;18.302;2023-08-01T20:48:22;27.05;;;24.58;;
35562;SDS011;21665;40.108;18.302;2023-08-01T20:50:48;27.00;;;24.70;;
35562;SDS011;21665;40.108;18.302;2023-08-01T20:53:16;27.05;;;24.75;;
35562;SDS011;21665;40.108;18.302;2023-08-01T20:55:42;25.52;;;23.65;;
35562;SDS011;21665;40.108;18.302;2023-08-01T20:58:09;25.05;;;23.25;;
35562;SDS011;21665;40.108;18.302;2023-08-01T21:00:35;25.10;;;23.27;;
35562;SDS011;21665;40.108;18.302;2023-08-01T21:03:01;25.20;;;23.20;;
35562;SDS011;21665;40.108;18.302;2023-08-01T21:05:28;25.17;;;23.33;;
35562;SDS011;21665;40.108;18.302;2023-08-01T21:07:54;26.20;;;24.15;;
35562;SDS011;21665;40.108;18.302;2023-08-01T21:10:21;25.35;;;23.45;;
35562;SDS011;21665;40.108;18.302;2023-08-01T21:12:47;25.80;;;23.80;;
35562;SDS011;21665;40.108;18.302;2023-08-01T21:15:14;26.50;;;24.35;;
35562;SDS011;21665;40.108;18.302;2023-08-01T21:17:42;26.33;;;24.40;;
35562;SDS011;21665;40.108;18.302;2023-08-01T21:20:09;26.50;;;24.30;;
35562;SDS011;21665;40.108;18.302;2023-08-01T21:22:38;26.35;;;24.15;;
35562;SDS011;21665;40.108;18.302;2023-08-01T21:25:04;26.08;;;24.00;;
35562;SDS011;21665;40.108;18.302;2023-08-01T21:27:31;27.27;;;24.98;;
35562;SDS011;21665;40.108;18.302;2023-08-01T21:29:57;26.25;;;24.15;;
35562;SDS011;21665;40.108;18.302;2023-08-01T21:32:24;26.13;;;23.80;;
35562;SDS011;21665;40.108;18.302;2023-08-01T21:34:54;25.45;;;23.30;;
35562;SDS011;21665;40.108;18.302;2023-08-01T21:37:20;25.40;;;23.50;;
35562;SDS011;21665;40.108;18.302;2023-08-01T21:39:47;24.83;;;22.80;;
35562;SDS011;21665;40.108;18.302;2023-08-01T21:42:14;24.05;;;21.85;;
35562;SDS011;21665;40.108;18.302;2023-08-01T21:44:41;24.20;;;22.23;;
35562;SDS011;21665;40.108;18.302;2023-08-01T21:47:08;23.20;;;21.40;;
35562;SDS011;21665;40.108;18.302;2023-08-01T21:49:35;21.60;;;20.10;;
35562;SDS011;21665;40.108;18.302;2023-08-01T21:52:02;21.92;;;20.00;;
35562;SDS011;21665;40.108;18.302;2023-08-01T21:54:29;21.55;;;19.48;;
35562;SDS011;21665;40.108;18.302;2023-08-01T21:56:59;20.60;;;19.30;;
35562;SDS011;21665;40.108;18.302;2023-08-01T21:59:26;20.60;;;19.00;;
35562;SDS011;21665;40.108;18.302;2023-08-01T22:01:53;20.10;;;18.60;;
35562;SDS011;21665;40.108;18.302;2023-08-01T22:04:19;19.27;;;17.85;;
35562;SDS011;21665;40.108;18.302;2023-08-01T22:06:46;20.30;;;18.40;;
35562;SDS011;21665;40.108;18.302;2023-08-01T22:09:12;19.13;;;17.58;;
35562;SDS011;21665;40.108;18.302;2023-08-01T22:11:39;19.15;;;17.60;;
35562;SDS011;21665;40.108;18.302;2023-08-01T22:14:08;17.77;;;16.63;;
35562;SDS011;21665;40.108;18.302;2023-08-01T22:16:35;18.25;;;16.63;;
35562;SDS011;21665;40.108;18.302;2023-08-01T22:19:01;18.27;;;16.60;;
35562;SDS011;21665;40.108;18.302;2023-08-01T22:21:27;18.40;;;16.67;;
35562;SDS011;21665;40.108;18.302;2023-08-01T22:23:56;18.23;;;16.42;;
35562;SDS011;21665;40.108;18.302;2023-08-01T22:26:22;17.75;;;16.35;;
35562;SDS011;21665;40.108;18.302;2023-08-01T22:28:49;16.92;;;15.70;;
35562;SDS011;21665;40.108;18.302;2023-08-01T22:31:19;18.58;;;15.88;;
35562;SDS011;21665;40.108;18.302;2023-08-01T22:33:45;16.77;;;15.30;;
35562;SDS011;21665;40.108;18.302;2023-08-01T22:36:12;16.98;;;15.52;;
35562;SDS011;21665;40.108;18.302;2023-08-01T22:38:40;17.08;;;15.57;;
35562;SDS011;21665;40.108;18.302;2023-08-01T22:41:13;17.13;;;15.60;;
35562;SDS011;21665;40.108;18.302;2023-08-01T22:43:41;16.50;;;15.20;;
35562;SDS011;21665;40.108;18.302;2023-08-01T22:46:08;17.42;;;15.88;;
35562;SDS011;21665;40.108;18.302;2023-08-01T22:48:34;16.50;;;15.00;;
35562;SDS011;21665;40.108;18.302;2023-08-01T22:51:01;15.90;;;14.50;;
35562;SDS011;21665;40.108;18.302;2023-08-01T22:53:30;15.80;;;14.60;;
35562;SDS011;21665;40.108;18.302;2023-08-01T22:55:57;17.30;;;15.63;;
35562;SDS011;21665;40.108;18.302;2023-08-01T22:58:23;16.35;;;15.05;;
35562;SDS011;21665;40.108;18.302;2023-08-01T23:00:55;16.40;;;14.90;;
35562;SDS011;21665;40.108;18.302;2023-08-01T23:03:21;15.88;;;14.68;;
35562;SDS011;21665;40.108;18.302;2023-08-01T23:05:48;17.02;;;14.90;;
35562;SDS011;21665;40.108;18.302;2023-08-01T23:08:14;16.42;;;14.73;;
35562;SDS011;21665;40.108;18.302;2023-08-01T23:10:41;16.05;;;14.63;;
35562;SDS011;21665;40.108;18.302;2023-08-01T23:13:07;15.35;;;14.15;;
35562;SDS011;21665;40.108;18.302;2023-08-01T23:15:34;15.30;;;13.80;;
35562;SDS011;21665;40.108;18.302;2023-08-01T23:18:20;20.23;;;18.60;;
35562;SDS011;21665;40.108;18.302;2023-08-01T23:20:47;16.83;;;15.55;;
35562;SDS011;21665;40.108;18.302;2023-08-01T23:23:15;21.80;;;17.52;;
35562;SDS011;21665;40.108;18.302;2023-08-01T23:25:41;14.52;;;13.30;;
35562;SDS011;21665;40.108;18.302;2023-08-01T23:28:08;15.50;;;14.15;;
35562;SDS011;21665;40.108;18.302;2023-08-01T23:30:35;13.75;;;12.40;;
35562;SDS011;21665;40.108;18.302;2023-08-01T23:33:01;13.82;;;12.57;;
35562;SDS011;21665;40.108;18.302;2023-08-01T23:35:29;14.95;;;12.80;;
35562;SDS011;21665;40.108;18.302;2023-08-01T23:37:55;14.07;;;12.88;;
35562;SDS011;21665;40.108;18.302;2023-08-01T23:40:26;14.73;;;12.30;;
35562;SDS011;21665;40.108;18.302;2023-08-01T23:42:54;14.82;;;13.43;;
35562;SDS011;21665;40.108;18.302;2023-08-01T23:45:21;13.38;;;12.07;;
35562;SDS011;21665;40.108;18.302;2023-08-01T23:47:47;14.07;;;12.88;;
35562;SDS011;21665;40.108;18.302;2023-08-01T23:50:15;14.40;;;12.90;;
35562;SDS011;21665;40.108;18.302;2023-08-01T23:52:42;15.65;;;12.85;;
35562;SDS011;21665;40.108;18.302;2023-08-01T23:55:09;15.68;;;12.95;;
35562;SDS011;21665;40.108;18.302;2023-08-01T23:57:36;13.18;;;11.93;;
